sensor_id;sensor_type;location;lat;lon;timestamp;P1;P2;P0
64229;PMS5003;50547;49.498;0.092;2023-02-07T00:01:40;26;23;
64229;PMS5003;50547;49.498;0.092;2023-02-07T00:04:09;26;23;
64229;PMS5003;50547;49.498;0.092;2023-02-07T00:06:38;23;20;
64229;PMS5003;50547;49.498;0.092;2023-02-07T00:09:08;23;20;
64229;PMS5003;50547;49.498;0.092;2023-02-07T00:11:39;23;20;
64229;PMS5003;50547;49.498;0.092;2023-02-07T00:14:09;23;20;
64229;PMS5003;50547;49.498;0.092;2023-02-07T00:16:40;23;20;
64229;PMS5003;50547;49.498;0.092;2023-02-07T00:19:09;24;21;
64229;PMS5003;50547;49.498;0.092;2023-02-07T00:21:38;23;20;
64229;PMS5003;50547;49.498;0.092;2023-02-07T00:24:07;23;20;
64229;PMS5003;50547;49.498;0.092;2023-02-07T00:26:37;23;20;
64229;PMS5003;50547;49.498;0.092;2023-02-07T00:29:06;23;20;
64229;PMS5003;50547;49.498;0.092;2023-02-07T00:31:35;24;21;
64229;PMS5003;50547;49.498;0.092;2023-02-07T00:34:06;23;20;
64229;PMS5003;50547;49.498;0.092;2023-02-07T00:36:35;22;19;
64229;PMS5003;50547;49.498;0.092;2023-02-07T00:39:06;25;22;
64229;PMS5003;50547;49.498;0.092;2023-02-07T00:41:36;25;22;
64229;PMS5003;50547;49.498;0.092;2023-02-07T00:44:06;25;22;
64229;PMS5003;50547;49.498;0.092;2023-02-07T00:46:36;25;22;
64229;PMS5003;50547;49.498;0.092;2023-02-07T00:49:06;24;21;
64229;PMS5003;50547;49.498;0.092;2023-02-07T00:51:35;23;20;
64229;PMS5003;50547;49.498;0.092;2023-02-07T00:54:04;23;20;
64229;PMS5003;50547;49.498;0.092;2023-02-07T00:56:34;25;22;
64229;PMS5003;50547;49.498;0.092;2023-02-07T00:59:03;24;21;
64229;PMS5003;50547;49.498;0.092;2023-02-07T01:01:32;23;20;
64229;PMS5003;50547;49.498;0.092;2023-02-07T01:04:01;23;20;
64229;PMS5003;50547;49.498;0.092;2023-02-07T01:06:30;25;22;
64229;PMS5003;50547;49.498;0.092;2023-02-07T01:09:00;25;22;
64229;PMS5003;50547;49.498;0.092;2023-02-07T01:11:30;27;23;
64229;PMS5003;50547;49.498;0.092;2023-02-07T01:14:00;25;22;
64229;PMS5003;50547;49.498;0.092;2023-02-07T01:16:30;23;20;
64229;PMS5003;50547;49.498;0.092;2023-02-07T01:19:02;24;21;
64229;PMS5003;50547;49.498;0.092;2023-02-07T01:21:33;26;23;
64229;PMS5003;50547;49.498;0.092;2023-02-07T01:24:03;24;21;
64229;PMS5003;50547;49.498;0.092;2023-02-07T01:26:33;26;23;
64229;PMS5003;50547;49.498;0.092;2023-02-07T01:29:02;25;22;
64229;PMS5003;50547;49.498;0.092;2023-02-07T01:31:32;24;21;
64229;PMS5003;50547;49.498;0.092;2023-02-07T01:34:01;23;20;
64229;PMS5003;50547;49.498;0.092;2023-02-07T01:36:30;24;21;
64229;PMS5003;50547;49.498;0.092;2023-02-07T01:39:00;25;22;
64229;PMS5003;50547;49.498;0.092;2023-02-07T01:41:29;24;21;
64229;PMS5003;50547;49.498;0.092;2023-02-07T01:43:59;24;21;
64229;PMS5003;50547;49.498;0.092;2023-02-07T01:46:30;23;20;
64229;PMS5003;50547;49.498;0.092;2023-02-07T01:49:01;23;20;
64229;PMS5003;50547;49.498;0.092;2023-02-07T01:51:35;23;20;
64229;PMS5003;50547;49.498;0.092;2023-02-07T01:54:07;24;21;
64229;PMS5003;50547;49.498;0.092;2023-02-07T01:56:37;25;22;
64229;PMS5003;50547;49.498;0.092;2023-02-07T01:59:10;23;20;
64229;PMS5003;50547;49.498;0.092;2023-02-07T02:01:41;23;20;
64229;PMS5003;50547;49.498;0.092;2023-02-07T02:04:11;23;20;
64229;PMS5003;50547;49.498;0.092;2023-02-07T02:06:40;23;20;
64229;PMS5003;50547;49.498;0.092;2023-02-07T02:09:15;23;20;
64229;PMS5003;50547;49.498;0.092;2023-02-07T02:11:48;22;19;
64229;PMS5003;50547;49.498;0.092;2023-02-07T02:14:35;22;19;
64229;PMS5003;50547;49.498;0.092;2023-02-07T02:17:20;22;19;
64229;PMS5003;50547;49.498;0.092;2023-02-07T02:20:03;22;19;
64229;PMS5003;50547;49.498;0.092;2023-02-07T02:23:19;20;17;
64229;PMS5003;50547;49.498;0.092;2023-02-07T02:26:02;22;19;
64229;PMS5003;50547;49.498;0.092;2023-02-07T02:29:11;20;17;
64229;PMS5003;50547;49.498;0.092;2023-02-07T02:32:03;18;16;
64229;PMS5003;50547;49.498;0.092;2023-02-07T02:34:51;20;17;
64229;PMS5003;50547;49.498;0.092;2023-02-07T02:37:28;19;17;
64229;PMS5003;50547;49.498;0.092;2023-02-07T02:40:06;20;17;
64229;PMS5003;50547;49.498;0.092;2023-02-07T02:42:42;18;16;
64229;PMS5003;50547;49.498;0.092;2023-02-07T02:45:19;19;17;
64229;PMS5003;50547;49.498;0.092;2023-02-07T02:47:53;18;16;
64229;PMS5003;50547;49.498;0.092;2023-02-07T02:50:24;19;17;
64229;PMS5003;50547;49.498;0.092;2023-02-07T02:52:55;20;17;
64229;PMS5003;50547;49.498;0.092;2023-02-07T02:55:32;19;17;
64229;PMS5003;50547;49.498;0.092;2023-02-07T02:58:17;18;16;
64229;PMS5003;50547;49.498;0.092;2023-02-07T03:00:58;18;16;
64229;PMS5003;50547;49.498;0.092;2023-02-07T03:04:11;18;16;
64229;PMS5003;50547;49.498;0.092;2023-02-07T03:06:59;18;16;
64229;PMS5003;50547;49.498;0.092;2023-02-07T03:09:40;18;16;
64229;PMS5003;50547;49.498;0.092;2023-02-07T03:12:22;18;16;
64229;PMS5003;50547;49.498;0.092;2023-02-07T03:14:59;17;15;
64229;PMS5003;50547;49.498;0.092;2023-02-07T03:17:33;18;16;
64229;PMS5003;50547;49.498;0.092;2023-02-07T03:20:07;18;16;
64229;PMS5003;50547;49.498;0.092;2023-02-07T03:22:42;18;16;
64229;PMS5003;50547;49.498;0.092;2023-02-07T03:25:12;19;17;
64229;PMS5003;50547;49.498;0.092;2023-02-07T03:27:43;18;16;
64229;PMS5003;50547;49.498;0.092;2023-02-07T03:30:15;17;15;
64229;PMS5003;50547;49.498;0.092;2023-02-07T03:32:49;19;17;
64229;PMS5003;50547;49.498;0.092;2023-02-07T03:35:22;19;17;
64229;PMS5003;50547;49.498;0.092;2023-02-07T03:37:55;18;16;
64229;PMS5003;50547;49.498;0.092;2023-02-07T03:40:26;19;17;
64229;PMS5003;50547;49.498;0.092;2023-02-07T03:42:58;15;14;
64229;PMS5003;50547;49.498;0.092;2023-02-07T03:45:33;18;16;
64229;PMS5003;50547;49.498;0.092;2023-02-07T03:48:03;18;16;
64229;PMS5003;50547;49.498;0.092;2023-02-07T03:50:32;18;16;
64229;PMS5003;50547;49.498;0.092;2023-02-07T03:53:01;14;14;
64229;PMS5003;50547;49.498;0.092;2023-02-07T03:55:30;18;16;
64229;PMS5003;50547;49.498;0.092;2023-02-07T03:58:00;19;17;
64229;PMS5003;50547;49.498;0.092;2023-02-07T04:00:29;18;16;
64229;PMS5003;50547;49.498;0.092;2023-02-07T04:02:58;18;16;
64229;PMS5003;50547;49.498;0.092;2023-02-07T04:05:27;18;16;
64229;PMS5003;50547;49.498;0.092;2023-02-07T04:07:56;18;16;
64229;PMS5003;50547;49.498;0.092;2023-02-07T04:10:25;18;16;
64229;PMS5003;50547;49.498;0.092;2023-02-07T04:12:54;18;16;
64229;PMS5003;50547;49.498;0.092;2023-02-07T04:15:23;18;16;
64229;PMS5003;50547;49.498;0.092;2023-02-07T04:17:52;18;16;
64229;PMS5003;50547;49.498;0.092;2023-02-07T04:20:21;15;14;
64229;PMS5003;50547;49.498;0.092;2023-02-07T04:22:50;18;16;
64229;PMS5003;50547;49.498;0.092;2023-02-07T04:25:19;17;15;
64229;PMS5003;50547;49.498;0.092;2023-02-07T04:27:48;18;16;
64229;PMS5003;50547;49.498;0.092;2023-02-07T04:30:17;18;16;
64229;PMS5003;50547;49.498;0.092;2023-02-07T04:32:46;19;17;
64229;PMS5003;50547;49.498;0.092;2023-02-07T04:35:15;20;17;
64229;PMS5003;50547;49.498;0.092;2023-02-07T04:37:44;18;16;
64229;PMS5003;50547;49.498;0.092;2023-02-07T04:40:13;20;17;
64229;PMS5003;50547;49.498;0.092;2023-02-07T04:42:42;19;17;
64229;PMS5003;50547;49.498;0.092;2023-02-07T04:45:11;18;16;
64229;PMS5003;50547;49.498;0.092;2023-02-07T04:47:40;20;17;
64229;PMS5003;50547;49.498;0.092;2023-02-07T04:50:10;20;17;
64229;PMS5003;50547;49.498;0.092;2023-02-07T04:52:39;18;16;
64229;PMS5003;50547;49.498;0.092;2023-02-07T04:55:08;20;17;
64229;PMS5003;50547;49.498;0.092;2023-02-07T04:57:37;18;16;
64229;PMS5003;50547;49.498;0.092;2023-02-07T05:00:07;20;17;
64229;PMS5003;50547;49.498;0.092;2023-02-07T05:02:37;20;17;
64229;PMS5003;50547;49.498;0.092;2023-02-07T05:05:06;18;16;
64229;PMS5003;50547;49.498;0.092;2023-02-07T05:07:35;18;16;
64229;PMS5003;50547;49.498;0.092;2023-02-07T05:10:05;20;17;
64229;PMS5003;50547;49.498;0.092;2023-02-07T05:12:34;19;17;
64229;PMS5003;50547;49.498;0.092;2023-02-07T05:15:03;18;16;
64229;PMS5003;50547;49.498;0.092;2023-02-07T05:17:33;19;17;
64229;PMS5003;50547;49.498;0.092;2023-02-07T05:20:02;18;16;
64229;PMS5003;50547;49.498;0.092;2023-02-07T05:22:31;18;16;
64229;PMS5003;50547;49.498;0.092;2023-02-07T05:25:00;17;15;
64229;PMS5003;50547;49.498;0.092;2023-02-07T05:27:29;18;16;
64229;PMS5003;50547;49.498;0.092;2023-02-07T05:29:58;18;16;
64229;PMS5003;50547;49.498;0.092;2023-02-07T05:32:27;18;16;
64229;PMS5003;50547;49.498;0.092;2023-02-07T05:34:56;20;17;
64229;PMS5003;50547;49.498;0.092;2023-02-07T05:37:26;20;17;
64229;PMS5003;50547;49.498;0.092;2023-02-07T05:39:55;19;17;
64229;PMS5003;50547;49.498;0.092;2023-02-07T05:42:24;19;17;
64229;PMS5003;50547;49.498;0.092;2023-02-07T05:44:53;20;17;
64229;PMS5003;50547;49.498;0.092;2023-02-07T05:47:22;20;17;
64229;PMS5003;50547;49.498;0.092;2023-02-07T05:49:51;19;17;
64229;PMS5003;50547;49.498;0.092;2023-02-07T05:52:20;18;16;
64229;PMS5003;50547;49.498;0.092;2023-02-07T05:54:49;18;16;
64229;PMS5003;50547;49.498;0.092;2023-02-07T05:57:18;19;17;
64229;PMS5003;50547;49.498;0.092;2023-02-07T05:59:48;20;17;
64229;PMS5003;50547;49.498;0.092;2023-02-07T06:02:17;18;16;
64229;PMS5003;50547;49.498;0.092;2023-02-07T06:04:46;18;16;
64229;PMS5003;50547;49.498;0.092;2023-02-07T06:07:15;20;17;
64229;PMS5003;50547;49.498;0.092;2023-02-07T06:09:44;19;17;
64229;PMS5003;50547;49.498;0.092;2023-02-07T06:12:13;19;17;
64229;PMS5003;50547;49.498;0.092;2023-02-07T06:14:42;19;17;
64229;PMS5003;50547;49.498;0.092;2023-02-07T06:17:11;19;17;
64229;PMS5003;50547;49.498;0.092;2023-02-07T06:19:40;18;16;
64229;PMS5003;50547;49.498;0.092;2023-02-07T06:22:09;18;16;
64229;PMS5003;50547;49.498;0.092;2023-02-07T06:24:38;20;17;
64229;PMS5003;50547;49.498;0.092;2023-02-07T06:27:07;20;17;
64229;PMS5003;50547;49.498;0.092;2023-02-07T06:29:36;20;17;
64229;PMS5003;50547;49.498;0.092;2023-02-07T06:32:05;19;17;
64229;PMS5003;50547;49.498;0.092;2023-02-07T06:34:34;19;17;
64229;PMS5003;50547;49.498;0.092;2023-02-07T06:37:03;20;17;
64229;PMS5003;50547;49.498;0.092;2023-02-07T06:39:32;18;16;
64229;PMS5003;50547;49.498;0.092;2023-02-07T06:42:01;18;16;
64229;PMS5003;50547;49.498;0.092;2023-02-07T06:44:31;18;16;
64229;PMS5003;50547;49.498;0.092;2023-02-07T06:47:00;18;16;
64229;PMS5003;50547;49.498;0.092;2023-02-07T06:49:29;18;16;
64229;PMS5003;50547;49.498;0.092;2023-02-07T06:51:58;19;17;
64229;PMS5003;50547;49.498;0.092;2023-02-07T06:54:27;20;17;
64229;PMS5003;50547;49.498;0.092;2023-02-07T06:56:56;19;17;
64229;PMS5003;50547;49.498;0.092;2023-02-07T06:59:25;18;16;
64229;PMS5003;50547;49.498;0.092;2023-02-07T07:01:54;19;17;
64229;PMS5003;50547;49.498;0.092;2023-02-07T07:04:23;19;17;
64229;PMS5003;50547;49.498;0.092;2023-02-07T07:06:52;18;16;
64229;PMS5003;50547;49.498;0.092;2023-02-07T07:09:21;21;18;
64229;PMS5003;50547;49.498;0.092;2023-02-07T07:11:50;20;17;
64229;PMS5003;50547;49.498;0.092;2023-02-07T07:14:19;18;16;
64229;PMS5003;50547;49.498;0.092;2023-02-07T07:16:49;21;18;
64229;PMS5003;50547;49.498;0.092;2023-02-07T07:19:18;20;17;
64229;PMS5003;50547;49.498;0.092;2023-02-07T07:21:47;21;18;
64229;PMS5003;50547;49.498;0.092;2023-02-07T07:24:16;20;17;
64229;PMS5003;50547;49.498;0.092;2023-02-07T07:26:45;20;17;
64229;PMS5003;50547;49.498;0.092;2023-02-07T07:29:14;21;18;
64229;PMS5003;50547;49.498;0.092;2023-02-07T07:31:43;19;17;
64229;PMS5003;50547;49.498;0.092;2023-02-07T07:34:12;22;19;
64229;PMS5003;50547;49.498;0.092;2023-02-07T07:36:42;21;18;
64229;PMS5003;50547;49.498;0.092;2023-02-07T07:39:11;18;16;
64229;PMS5003;50547;49.498;0.092;2023-02-07T07:41:41;20;17;
64229;PMS5003;50547;49.498;0.092;2023-02-07T07:44:10;20;17;
64229;PMS5003;50547;49.498;0.092;2023-02-07T07:46:39;20;17;
64229;PMS5003;50547;49.498;0.092;2023-02-07T07:49:08;19;17;
64229;PMS5003;50547;49.498;0.092;2023-02-07T07:51:37;21;18;
64229;PMS5003;50547;49.498;0.092;2023-02-07T07:54:06;20;17;
64229;PMS5003;50547;49.498;0.092;2023-02-07T07:56:36;20;17;
64229;PMS5003;50547;49.498;0.092;2023-02-07T07:59:03;20;17;
64229;PMS5003;50547;49.498;0.092;2023-02-07T08:01:32;21;18;
64229;PMS5003;50547;49.498;0.092;2023-02-07T08:04:01;19;17;
64229;PMS5003;50547;49.498;0.092;2023-02-07T08:06:30;20;17;
64229;PMS5003;50547;49.498;0.092;2023-02-07T08:08:59;20;17;
64229;PMS5003;50547;49.498;0.092;2023-02-07T08:11:28;19;17;
64229;PMS5003;50547;49.498;0.092;2023-02-07T08:13:55;20;17;
64229;PMS5003;50547;49.498;0.092;2023-02-07T08:16:24;20;17;
64229;PMS5003;50547;49.498;0.092;2023-02-07T08:18:53;19;17;
64229;PMS5003;50547;49.498;0.092;2023-02-07T08:21:19;18;16;
64229;PMS5003;50547;49.498;0.092;2023-02-07T08:23:48;18;16;
64229;PMS5003;50547;49.498;0.092;2023-02-07T08:26:27;19;17;
64229;PMS5003;50547;49.498;0.092;2023-02-07T08:28:55;18;16;
64229;PMS5003;50547;49.498;0.092;2023-02-07T08:31:24;19;17;
64229;PMS5003;50547;49.498;0.092;2023-02-07T08:33:53;18;16;
64229;PMS5003;50547;49.498;0.092;2023-02-07T08:36:22;18;16;
64229;PMS5003;50547;49.498;0.092;2023-02-07T08:38:51;18;16;
64229;PMS5003;50547;49.498;0.092;2023-02-07T08:41:20;20;17;
64229;PMS5003;50547;49.498;0.092;2023-02-07T08:43:49;18;16;
64229;PMS5003;50547;49.498;0.092;2023-02-07T08:46:19;18;16;
64229;PMS5003;50547;49.498;0.092;2023-02-07T08:48:49;18;16;
64229;PMS5003;50547;49.498;0.092;2023-02-07T08:51:17;18;16;
64229;PMS5003;50547;49.498;0.092;2023-02-07T08:53:47;20;17;
64229;PMS5003;50547;49.498;0.092;2023-02-07T08:56:16;18;16;
64229;PMS5003;50547;49.498;0.092;2023-02-07T08:58:45;18;16;
64229;PMS5003;50547;49.498;0.092;2023-02-07T09:01:14;19;17;
64229;PMS5003;50547;49.498;0.092;2023-02-07T09:03:42;14;14;
64229;PMS5003;50547;49.498;0.092;2023-02-07T09:06:11;19;17;
64229;PMS5003;50547;49.498;0.092;2023-02-07T09:08:40;19;17;
64229;PMS5003;50547;49.498;0.092;2023-02-07T09:11:10;20;17;
64229;PMS5003;50547;49.498;0.092;2023-02-07T09:13:39;19;17;
64229;PMS5003;50547;49.498;0.092;2023-02-07T09:16:08;18;16;
64229;PMS5003;50547;49.498;0.092;2023-02-07T09:18:37;20;17;
64229;PMS5003;50547;49.498;0.092;2023-02-07T09:21:06;20;17;
64229;PMS5003;50547;49.498;0.092;2023-02-07T09:23:36;18;16;
64229;PMS5003;50547;49.498;0.092;2023-02-07T09:26:05;18;16;
64229;PMS5003;50547;49.498;0.092;2023-02-07T09:28:36;15;14;
64229;PMS5003;50547;49.498;0.092;2023-02-07T09:31:06;18;16;
64229;PMS5003;50547;49.498;0.092;2023-02-07T09:33:36;18;16;
64229;PMS5003;50547;49.498;0.092;2023-02-07T09:36:14;14;14;
64229;PMS5003;50547;49.498;0.092;2023-02-07T09:38:45;14;14;
64229;PMS5003;50547;49.498;0.092;2023-02-07T09:41:18;14;14;
64229;PMS5003;50547;49.498;0.092;2023-02-07T09:43:57;14;14;
64229;PMS5003;50547;49.498;0.092;2023-02-07T09:46:33;13;13;
64229;PMS5003;50547;49.498;0.092;2023-02-07T09:49:08;15;14;
64229;PMS5003;50547;49.498;0.092;2023-02-07T09:51:44;17;15;
64229;PMS5003;50547;49.498;0.092;2023-02-07T09:54:16;15;14;
64229;PMS5003;50547;49.498;0.092;2023-02-07T09:56:51;18;16;
64229;PMS5003;50547;49.498;0.092;2023-02-07T09:59:29;14;14;
64229;PMS5003;50547;49.498;0.092;2023-02-07T10:02:11;18;16;
64229;PMS5003;50547;49.498;0.092;2023-02-07T10:04:45;17;15;
64229;PMS5003;50547;49.498;0.092;2023-02-07T10:07:18;18;16;
64229;PMS5003;50547;49.498;0.092;2023-02-07T10:09:47;19;17;
64229;PMS5003;50547;49.498;0.092;2023-02-07T10:12:21;15;14;
64229;PMS5003;50547;49.498;0.092;2023-02-07T10:15:06;18;16;
64229;PMS5003;50547;49.498;0.092;2023-02-07T10:17:50;15;14;
64229;PMS5003;50547;49.498;0.092;2023-02-07T10:20:46;15;14;
64229;PMS5003;50547;49.498;0.092;2023-02-07T10:23:26;14;14;
64229;PMS5003;50547;49.498;0.092;2023-02-07T10:26:07;15;14;
64229;PMS5003;50547;49.498;0.092;2023-02-07T10:28:52;17;15;
64229;PMS5003;50547;49.498;0.092;2023-02-07T10:31:28;51;45;
64229;PMS5003;50547;49.498;0.092;2023-02-07T10:34:09;24;21;
64229;PMS5003;50547;49.498;0.092;2023-02-07T10:36:42;17;15;
64229;PMS5003;50547;49.498;0.092;2023-02-07T10:39:14;14;14;
64229;PMS5003;50547;49.498;0.092;2023-02-07T10:41:48;14;14;
64229;PMS5003;50547;49.498;0.092;2023-02-07T10:44:16;14;14;
64229;PMS5003;50547;49.498;0.092;2023-02-07T10:46:49;14;14;
64229;PMS5003;50547;49.498;0.092;2023-02-07T10:49:22;14;14;
64229;PMS5003;50547;49.498;0.092;2023-02-07T10:51:55;15;14;
64229;PMS5003;50547;49.498;0.092;2023-02-07T10:54:25;15;14;
64229;PMS5003;50547;49.498;0.092;2023-02-07T10:56:56;15;14;
64229;PMS5003;50547;49.498;0.092;2023-02-07T10:59:31;18;16;
64229;PMS5003;50547;49.498;0.092;2023-02-07T11:02:25;18;16;
64229;PMS5003;50547;49.498;0.092;2023-02-07T11:10:09;18;16;
64229;PMS5003;50547;49.498;0.092;2023-02-07T11:12:44;15;14;
64229;PMS5003;50547;49.498;0.092;2023-02-07T11:15:15;17;15;
64229;PMS5003;50547;49.498;0.092;2023-02-07T11:17:46;14;14;
64229;PMS5003;50547;49.498;0.092;2023-02-07T11:20:17;14;14;
64229;PMS5003;50547;49.498;0.092;2023-02-07T11:22:51;14;14;
64229;PMS5003;50547;49.498;0.092;2023-02-07T11:25:26;14;14;
64229;PMS5003;50547;49.498;0.092;2023-02-07T11:27:57;13;13;
64229;PMS5003;50547;49.498;0.092;2023-02-07T11:30:27;13;13;
64229;PMS5003;50547;49.498;0.092;2023-02-07T11:32:57;13;13;
64229;PMS5003;50547;49.498;0.092;2023-02-07T11:35:29;13;13;
64229;PMS5003;50547;49.498;0.092;2023-02-07T11:37:59;13;13;
64229;PMS5003;50547;49.498;0.092;2023-02-07T11:40:29;13;13;
64229;PMS5003;50547;49.498;0.092;2023-02-07T11:43:08;13;13;
64229;PMS5003;50547;49.498;0.092;2023-02-07T11:45:41;11;11;
64229;PMS5003;50547;49.498;0.092;2023-02-07T11:48:15;13;13;
64229;PMS5003;50547;49.498;0.092;2023-02-07T11:50:46;13;13;
64229;PMS5003;50547;49.498;0.092;2023-02-07T11:53:21;13;13;
64229;PMS5003;50547;49.498;0.092;2023-02-07T11:55:52;13;13;
64229;PMS5003;50547;49.498;0.092;2023-02-07T11:58:25;13;13;
64229;PMS5003;50547;49.498;0.092;2023-02-07T12:00:59;13;13;
64229;PMS5003;50547;49.498;0.092;2023-02-07T12:03:30;13;13;
64229;PMS5003;50547;49.498;0.092;2023-02-07T12:06:02;13;13;
64229;PMS5003;50547;49.498;0.092;2023-02-07T12:08:33;14;14;
64229;PMS5003;50547;49.498;0.092;2023-02-07T12:11:04;13;13;
64229;PMS5003;50547;49.498;0.092;2023-02-07T12:13:39;13;13;
64229;PMS5003;50547;49.498;0.092;2023-02-07T12:16:12;14;14;
64229;PMS5003;50547;49.498;0.092;2023-02-07T12:18:47;14;14;
64229;PMS5003;50547;49.498;0.092;2023-02-07T12:21:22;13;13;
64229;PMS5003;50547;49.498;0.092;2023-02-07T12:23:55;13;13;
64229;PMS5003;50547;49.498;0.092;2023-02-07T12:26:29;13;13;
64229;PMS5003;50547;49.498;0.092;2023-02-07T12:29:14;13;13;
64229;PMS5003;50547;49.498;0.092;2023-02-07T12:31:55;13;13;
64229;PMS5003;50547;49.498;0.092;2023-02-07T12:34:33;13;13;
64229;PMS5003;50547;49.498;0.092;2023-02-07T12:37:10;13;13;
64229;PMS5003;50547;49.498;0.092;2023-02-07T12:39:47;11;11;
64229;PMS5003;50547;49.498;0.092;2023-02-07T12:42:28;11;11;
64229;PMS5003;50547;49.498;0.092;2023-02-07T12:45:02;13;13;
64229;PMS5003;50547;49.498;0.092;2023-02-07T12:47:37;13;13;
64229;PMS5003;50547;49.498;0.092;2023-02-07T12:50:14;11;11;
64229;PMS5003;50547;49.498;0.092;2023-02-07T12:52:54;13;13;
64229;PMS5003;50547;49.498;0.092;2023-02-07T12:55:35;11;11;
64229;PMS5003;50547;49.498;0.092;2023-02-07T12:58:17;13;13;
64229;PMS5003;50547;49.498;0.092;2023-02-07T13:00:58;13;13;
64229;PMS5003;50547;49.498;0.092;2023-02-07T13:03:35;11;11;
64229;PMS5003;50547;49.498;0.092;2023-02-07T13:06:24;11;11;
64229;PMS5003;50547;49.498;0.092;2023-02-07T13:08:59;13;13;
64229;PMS5003;50547;49.498;0.092;2023-02-07T13:11:33;11;11;
64229;PMS5003;50547;49.498;0.092;2023-02-07T13:14:13;11;11;
64229;PMS5003;50547;49.498;0.092;2023-02-07T13:16:53;11;11;
64229;PMS5003;50547;49.498;0.092;2023-02-07T13:19:37;13;13;
64229;PMS5003;50547;49.498;0.092;2023-02-07T13:22:14;13;13;
64229;PMS5003;50547;49.498;0.092;2023-02-07T13:24:51;13;13;
64229;PMS5003;50547;49.498;0.092;2023-02-07T13:27:22;13;13;
64229;PMS5003;50547;49.498;0.092;2023-02-07T13:29:53;13;13;
64229;PMS5003;50547;49.498;0.092;2023-02-07T13:32:24;13;13;
64229;PMS5003;50547;49.498;0.092;2023-02-07T13:34:56;13;13;
64229;PMS5003;50547;49.498;0.092;2023-02-07T13:37:32;11;11;
64229;PMS5003;50547;49.498;0.092;2023-02-07T13:40:16;13;13;
64229;PMS5003;50547;49.498;0.092;2023-02-07T13:42:54;13;13;
64229;PMS5003;50547;49.498;0.092;2023-02-07T13:45:30;11;11;
64229;PMS5003;50547;49.498;0.092;2023-02-07T13:48:09;11;11;
64229;PMS5003;50547;49.498;0.092;2023-02-07T13:50:49;11;11;
64229;PMS5003;50547;49.498;0.092;2023-02-07T13:53:26;13;13;
64229;PMS5003;50547;49.498;0.092;2023-02-07T13:56:02;13;13;
64229;PMS5003;50547;49.498;0.092;2023-02-07T13:58:52;13;13;
64229;PMS5003;50547;49.498;0.092;2023-02-07T14:01:23;13;13;
64229;PMS5003;50547;49.498;0.092;2023-02-07T14:04:03;11;11;
64229;PMS5003;50547;49.498;0.092;2023-02-07T14:06:34;13;13;
64229;PMS5003;50547;49.498;0.092;2023-02-07T14:09:06;11;11;
64229;PMS5003;50547;49.498;0.092;2023-02-07T14:11:45;13;13;
64229;PMS5003;50547;49.498;0.092;2023-02-07T14:14:22;13;13;
64229;PMS5003;50547;49.498;0.092;2023-02-07T14:16:53;13;13;
64229;PMS5003;50547;49.498;0.092;2023-02-07T14:19:56;13;13;
64229;PMS5003;50547;49.498;0.092;2023-02-07T14:22:26;14;14;
64229;PMS5003;50547;49.498;0.092;2023-02-07T14:25:36;14;14;
64229;PMS5003;50547;49.498;0.092;2023-02-07T14:28:16;14;14;
64229;PMS5003;50547;49.498;0.092;2023-02-07T14:30:56;14;14;
64229;PMS5003;50547;49.498;0.092;2023-02-07T14:33:30;13;13;
64229;PMS5003;50547;49.498;0.092;2023-02-07T14:36:03;15;14;
64229;PMS5003;50547;49.498;0.092;2023-02-07T14:38:38;13;13;
64229;PMS5003;50547;49.498;0.092;2023-02-07T14:41:10;13;13;
64229;PMS5003;50547;49.498;0.092;2023-02-07T14:43:43;14;14;
64229;PMS5003;50547;49.498;0.092;2023-02-07T14:46:17;13;13;
64229;PMS5003;50547;49.498;0.092;2023-02-07T14:48:57;14;14;
64229;PMS5003;50547;49.498;0.092;2023-02-07T14:51:30;14;14;
64229;PMS5003;50547;49.498;0.092;2023-02-07T14:54:12;13;13;
64229;PMS5003;50547;49.498;0.092;2023-02-07T14:56:48;13;13;
64229;PMS5003;50547;49.498;0.092;2023-02-07T14:59:23;14;14;
64229;PMS5003;50547;49.498;0.092;2023-02-07T15:01:55;13;13;
64229;PMS5003;50547;49.498;0.092;2023-02-07T15:04:24;14;14;
64229;PMS5003;50547;49.498;0.092;2023-02-07T15:06:53;13;13;
64229;PMS5003;50547;49.498;0.092;2023-02-07T15:09:24;13;13;
64229;PMS5003;50547;49.498;0.092;2023-02-07T15:11:59;13;13;
64229;PMS5003;50547;49.498;0.092;2023-02-07T15:14:33;13;13;
64229;PMS5003;50547;49.498;0.092;2023-02-07T15:17:04;14;14;
64229;PMS5003;50547;49.498;0.092;2023-02-07T15:19:34;13;13;
64229;PMS5003;50547;49.498;0.092;2023-02-07T15:22:06;13;13;
64229;PMS5003;50547;49.498;0.092;2023-02-07T15:24:36;13;13;
64229;PMS5003;50547;49.498;0.092;2023-02-07T15:27:17;14;14;
64229;PMS5003;50547;49.498;0.092;2023-02-07T15:29:53;13;13;
64229;PMS5003;50547;49.498;0.092;2023-02-07T15:32:24;14;14;
64229;PMS5003;50547;49.498;0.092;2023-02-07T15:34:54;17;15;
64229;PMS5003;50547;49.498;0.092;2023-02-07T15:37:24;18;16;
64229;PMS5003;50547;49.498;0.092;2023-02-07T15:39:54;18;16;
64229;PMS5003;50547;49.498;0.092;2023-02-07T15:42:24;18;16;
64229;PMS5003;50547;49.498;0.092;2023-02-07T15:44:54;19;17;
64229;PMS5003;50547;49.498;0.092;2023-02-07T15:47:33;20;17;
64229;PMS5003;50547;49.498;0.092;2023-02-07T15:50:04;19;17;
64229;PMS5003;50547;49.498;0.092;2023-02-07T15:52:35;15;14;
64229;PMS5003;50547;49.498;0.092;2023-02-07T15:55:13;19;17;
64229;PMS5003;50547;49.498;0.092;2023-02-07T15:57:45;18;16;
64229;PMS5003;50547;49.498;0.092;2023-02-07T16:00:15;19;17;
64229;PMS5003;50547;49.498;0.092;2023-02-07T16:02:51;20;17;
64229;PMS5003;50547;49.498;0.092;2023-02-07T16:05:25;19;17;
64229;PMS5003;50547;49.498;0.092;2023-02-07T16:07:57;20;17;
64229;PMS5003;50547;49.498;0.092;2023-02-07T16:10:31;20;17;
64229;PMS5003;50547;49.498;0.092;2023-02-07T16:13:08;20;17;
64229;PMS5003;50547;49.498;0.092;2023-02-07T16:15:53;20;17;
64229;PMS5003;50547;49.498;0.092;2023-02-07T16:18:40;20;17;
64229;PMS5003;50547;49.498;0.092;2023-02-07T16:21:11;18;16;
64229;PMS5003;50547;49.498;0.092;2023-02-07T16:23:44;20;17;
64229;PMS5003;50547;49.498;0.092;2023-02-07T16:26:15;20;17;
64229;PMS5003;50547;49.498;0.092;2023-02-07T16:28:46;20;17;
64229;PMS5003;50547;49.498;0.092;2023-02-07T16:31:15;20;17;
64229;PMS5003;50547;49.498;0.092;2023-02-07T16:33:44;20;17;
64229;PMS5003;50547;49.498;0.092;2023-02-07T16:36:14;21;18;
64229;PMS5003;50547;49.498;0.092;2023-02-07T16:38:44;19;17;
64229;PMS5003;50547;49.498;0.092;2023-02-07T16:41:19;19;17;
64229;PMS5003;50547;49.498;0.092;2023-02-07T16:43:52;19;17;
64229;PMS5003;50547;49.498;0.092;2023-02-07T16:46:22;18;16;
64229;PMS5003;50547;49.498;0.092;2023-02-07T16:48:51;20;17;
64229;PMS5003;50547;49.498;0.092;2023-02-07T16:51:20;18;16;
64229;PMS5003;50547;49.498;0.092;2023-02-07T16:53:49;24;21;
64229;PMS5003;50547;49.498;0.092;2023-02-07T16:56:21;18;16;
64229;PMS5003;50547;49.498;0.092;2023-02-07T16:58:54;19;17;
64229;PMS5003;50547;49.498;0.092;2023-02-07T17:01:23;20;17;